createdAt,value
2018-05-29T00:01:46.850Z,18.55
2018-05-29T00:04:14.501Z,18.47
2018-05-29T00:06:42.169Z,20.93
2018-05-29T00:09:09.881Z,17.83
2018-05-29T00:11:37.552Z,18.45
2018-05-29T00:14:05.208Z,19.70
2018-05-29T00:16:32.854Z,17.50
2018-05-29T00:19:00.573Z,17.43
2018-05-29T00:21:28.220Z,17.50
2018-05-29T00:23:55.874Z,16.30
2018-05-29T00:26:23.535Z,15.90
2018-05-29T00:28:51.187Z,16.03
2018-05-29T00:31:18.830Z,16.07
2018-05-29T00:33:46.496Z,18.00
2018-05-29T00:36:14.149Z,14.93
2018-05-29T00:38:41.812Z,16.20
2018-05-29T00:41:09.475Z,15.93
2018-05-29T00:43:37.108Z,16.10
2018-05-29T00:46:04.754Z,16.40
2018-05-29T00:48:32.392Z,15.80
2018-05-29T00:51:00.050Z,15.48
2018-05-29T00:53:27.690Z,15.30
2018-05-29T00:55:55.346Z,15.93
2018-05-29T00:58:22.993Z,15.32
2018-05-29T01:00:51.568Z,16.10
2018-05-29T01:03:19.217Z,15.53
2018-05-29T01:05:46.850Z,17.00
2018-05-29T01:08:14.483Z,15.00
2018-05-29T01:10:42.134Z,15.77
2018-05-29T01:13:09.779Z,15.23
2018-05-29T01:15:37.425Z,15.60
2018-05-29T01:18:05.074Z,14.40
2018-05-29T01:20:32.706Z,16.00
2018-05-29T01:23:00.359Z,15.80
2018-05-29T01:25:28.020Z,15.30
2018-05-29T01:27:55.685Z,15.37
2018-05-29T01:30:23.352Z,15.65
2018-05-29T01:32:50.993Z,14.67
2018-05-29T01:35:18.652Z,14.77
2018-05-29T01:37:46.292Z,15.40
2018-05-29T01:40:13.939Z,15.77
2018-05-29T01:42:41.570Z,16.30
2018-05-29T01:45:09.208Z,14.53
2018-05-29T01:47:36.873Z,17.03
2018-05-29T01:50:04.521Z,16.10
2018-05-29T01:52:32.184Z,16.27
2018-05-29T01:54:59.826Z,15.30
2018-05-29T01:57:27.482Z,16.87
2018-05-29T01:59:55.147Z,16.60
2018-05-29T02:02:22.801Z,15.60
2018-05-29T02:04:50.449Z,16.73
2018-05-29T02:07:18.106Z,16.80
2018-05-29T02:09:45.761Z,17.23
2018-05-29T02:12:13.398Z,16.80
2018-05-29T02:14:41.059Z,16.50
2018-05-29T02:17:08.705Z,18.00
2018-05-29T02:19:36.372Z,16.20
2018-05-29T02:22:03.998Z,17.47
2018-05-29T02:24:31.697Z,15.85
2018-05-29T02:26:59.338Z,16.42
2018-05-29T02:29:26.973Z,16.43
2018-05-29T02:31:54.634Z,17.48
2018-05-29T02:34:22.279Z,16.33
2018-05-29T02:36:49.931Z,18.60
2018-05-29T02:39:17.603Z,16.33
2018-05-29T02:41:45.285Z,15.90
2018-05-29T02:44:12.923Z,16.10
2018-05-29T02:46:40.566Z,17.60
2018-05-29T02:49:08.207Z,16.33
2018-05-29T02:51:35.876Z,17.10
2018-05-29T02:54:03.510Z,17.20
2018-05-29T02:56:31.138Z,16.50
2018-05-29T02:58:58.786Z,17.63
2018-05-29T03:01:26.442Z,18.00
2018-05-29T03:03:54.088Z,16.43
2018-05-29T03:06:21.747Z,17.20
2018-05-29T03:08:49.425Z,17.77
2018-05-29T03:11:17.091Z,18.13
2018-05-29T03:13:44.754Z,18.17
2018-05-29T03:16:12.401Z,17.00
2018-05-29T03:18:40.054Z,18.37
2018-05-29T03:21:07.704Z,18.30
2018-05-29T03:23:35.358Z,19.30
2018-05-29T03:26:03.018Z,18.20
2018-05-29T03:28:30.689Z,19.30
2018-05-29T03:30:58.344Z,19.13
2018-05-29T03:33:26.018Z,17.62
2018-05-29T03:35:53.660Z,17.90
2018-05-29T03:38:21.300Z,20.10
2018-05-29T03:40:48.947Z,17.50
2018-05-29T03:43:16.578Z,17.97
2018-05-29T03:45:44.207Z,17.97
2018-05-29T03:48:12.297Z,18.00
2018-05-29T03:50:39.949Z,17.30
2018-05-29T03:53:07.601Z,19.40
2018-05-29T03:55:35.233Z,18.27
2018-05-29T03:58:02.889Z,18.90
2018-05-29T04:00:34.861Z,17.57
2018-05-29T04:03:02.497Z,17.43
2018-05-29T04:05:30.174Z,19.00
2018-05-29T04:07:57.842Z,20.30
2018-05-29T04:10:25.512Z,17.60
2018-05-29T04:12:55.123Z,17.77
2018-05-29T04:15:22.901Z,18.30
2018-05-29T04:17:50.594Z,18.97
2018-05-29T04:20:18.232Z,17.83
2018-05-29T04:22:45.885Z,17.50
2018-05-29T04:25:13.516Z,17.93
2018-05-29T04:27:41.581Z,17.33
2018-05-29T04:30:09.212Z,18.37
2018-05-29T04:32:37.018Z,18.40
2018-05-29T04:35:04.674Z,17.83
2018-05-29T04:37:32.315Z,16.37
2018-05-29T04:39:59.957Z,17.35
2018-05-29T04:42:27.912Z,17.75
2018-05-29T04:44:55.587Z,16.40
2018-05-29T04:47:23.240Z,16.70
2018-05-29T04:49:50.879Z,16.40
2018-05-29T04:52:18.512Z,16.67
2018-05-29T04:54:46.172Z,15.43
2018-05-29T04:57:13.802Z,15.07
2018-05-29T04:59:42.079Z,15.43
2018-05-29T05:02:09.713Z,15.23
2018-05-29T05:04:37.353Z,14.77
2018-05-29T05:07:05.114Z,15.10
2018-05-29T05:09:32.749Z,15.25
2018-05-29T05:12:00.392Z,15.07
2018-05-29T05:14:28.025Z,13.30
2018-05-29T05:16:55.942Z,14.27
2018-05-29T05:19:24.528Z,14.00
2018-05-29T05:21:52.513Z,14.00
2018-05-29T05:24:20.178Z,13.70
2018-05-29T05:26:47.822Z,14.93
2018-05-29T05:29:17.631Z,15.40
2018-05-29T05:31:45.565Z,15.50
2018-05-29T05:34:13.207Z,14.73
2018-05-29T05:36:40.839Z,15.00
2018-05-29T05:39:08.487Z,14.30
2018-05-29T05:41:36.129Z,14.67
2018-05-29T05:44:03.781Z,14.47
2018-05-29T05:46:31.424Z,14.67
2018-05-29T05:48:59.067Z,14.50
2018-05-29T05:51:26.742Z,18.90
2018-05-29T05:53:54.380Z,12.60
2018-05-29T05:56:22.803Z,14.00
2018-05-29T05:58:50.445Z,12.90
2018-05-29T06:01:18.111Z,13.87
2018-05-29T06:03:45.761Z,12.47
2018-05-29T06:06:13.780Z,13.70
2018-05-29T06:08:42.201Z,13.67
2018-05-29T06:11:09.823Z,12.40
2018-05-29T06:13:37.462Z,14.90
2018-05-29T06:16:05.103Z,13.30
2018-05-29T06:18:33.120Z,13.37
2018-05-29T06:21:01.261Z,13.13
2018-05-29T06:23:29.234Z,12.70
2018-05-29T06:25:59.286Z,11.63
2018-05-29T06:28:26.934Z,12.07
2018-05-29T06:30:54.579Z,13.57
2018-05-29T06:33:22.222Z,11.63
2018-05-29T06:35:49.870Z,13.63
2018-05-29T06:38:17.567Z,12.48
2018-05-29T06:40:45.211Z,13.17
2018-05-29T06:43:12.848Z,12.33
2018-05-29T06:45:40.489Z,12.63
2018-05-29T06:48:09.211Z,12.13
2018-05-29T06:50:36.878Z,13.02
2018-05-29T06:53:04.527Z,12.93
2018-05-29T06:55:32.170Z,14.00
2018-05-29T06:58:00.001Z,13.00
2018-05-29T07:00:27.667Z,12.45
2018-05-29T07:02:55.301Z,12.27
2018-05-29T07:05:22.969Z,12.60
2018-05-29T07:07:50.609Z,12.93
2018-05-29T07:10:18.255Z,12.80
2018-05-29T07:12:45.896Z,13.17
2018-05-29T07:15:13.538Z,13.67
2018-05-29T07:17:41.172Z,12.73
2018-05-29T07:20:08.841Z,12.10
2018-05-29T07:22:36.468Z,12.83
2018-05-29T07:25:04.118Z,12.40
2018-05-29T07:27:31.766Z,14.10
2018-05-29T07:29:59.410Z,14.03
2018-05-29T07:32:27.065Z,12.53
2018-05-29T07:34:54.709Z,12.87
2018-05-29T07:37:22.341Z,12.73
2018-05-29T07:39:49.982Z,11.33
2018-05-29T07:42:17.633Z,13.20
2018-05-29T07:44:45.300Z,13.20
2018-05-29T07:47:12.932Z,12.77
2018-05-29T07:49:40.601Z,12.03
2018-05-29T07:52:08.238Z,12.20
2018-05-29T07:54:35.881Z,13.10
2018-05-29T07:57:03.570Z,13.03
2018-05-29T07:59:31.251Z,15.03
2018-05-29T08:01:58.885Z,13.53
2018-05-29T08:04:26.541Z,13.90
2018-05-29T08:06:54.179Z,14.87
2018-05-29T08:09:21.820Z,13.47
2018-05-29T08:11:49.470Z,14.90
2018-05-29T08:14:17.125Z,15.80
2018-05-29T08:16:44.774Z,13.27
2018-05-29T08:19:12.415Z,13.63
2018-05-29T08:21:40.049Z,12.87
2018-05-29T08:24:07.684Z,13.17
2018-05-29T08:26:35.334Z,12.47
2018-05-29T08:29:02.971Z,12.45
2018-05-29T08:31:30.619Z,12.80
2018-05-29T08:33:58.254Z,14.60
2018-05-29T08:36:25.884Z,11.87
2018-05-29T08:38:53.520Z,11.33
2018-05-29T08:41:21.163Z,14.60
2018-05-29T08:43:48.788Z,11.67
2018-05-29T08:46:16.450Z,12.57
2018-05-29T08:48:44.085Z,10.70
2018-05-29T08:51:11.717Z,11.32
2018-05-29T08:53:39.347Z,11.23
2018-05-29T08:56:06.997Z,11.88
2018-05-29T08:58:34.683Z,12.00
2018-05-29T09:01:02.318Z,11.27
2018-05-29T09:03:29.946Z,12.00
2018-05-29T09:05:57.584Z,13.80
2018-05-29T09:08:25.219Z,11.17
2018-05-29T09:10:52.924Z,11.00
2018-05-29T09:13:20.560Z,12.20
2018-05-29T09:15:48.186Z,12.23
2018-05-29T09:18:15.852Z,11.97
2018-05-29T09:20:43.503Z,11.43
2018-05-29T09:23:11.148Z,13.23
2018-05-29T09:25:38.785Z,13.03
2018-05-29T09:28:06.429Z,12.67
2018-05-29T09:30:34.066Z,12.50
2018-05-29T09:33:01.702Z,12.70
2018-05-29T09:35:29.371Z,11.47
2018-05-29T09:37:57.022Z,14.57
2018-05-29T09:40:24.707Z,12.23
2018-05-29T09:42:52.350Z,12.43
2018-05-29T09:45:19.989Z,12.10
2018-05-29T09:47:47.632Z,11.17
2018-05-29T09:50:15.288Z,12.27
2018-05-29T09:52:42.913Z,12.00
2018-05-29T09:55:10.554Z,11.30
2018-05-29T09:57:38.204Z,11.43
2018-05-29T10:00:05.852Z,11.57
2018-05-29T10:02:33.485Z,12.23
2018-05-29T10:05:01.128Z,12.30
2018-05-29T10:07:28.772Z,11.80
2018-05-29T10:09:56.404Z,10.90
2018-05-29T10:12:24.057Z,10.87
2018-05-29T10:14:51.687Z,12.00
2018-05-29T10:17:19.319Z,11.13
2018-05-29T10:19:46.983Z,12.10
2018-05-29T10:22:14.618Z,11.47
2018-05-29T10:24:42.271Z,11.97
2018-05-29T10:27:09.913Z,11.60
2018-05-29T10:29:37.549Z,10.50
2018-05-29T10:32:05.193Z,9.90
2018-05-29T10:34:32.823Z,11.13
2018-05-29T10:37:00.455Z,10.50
2018-05-29T10:39:28.088Z,9.13
2018-05-29T10:41:55.755Z,9.77
2018-05-29T10:44:23.379Z,8.53
2018-05-29T10:46:51.009Z,8.40
2018-05-29T10:49:18.656Z,10.67
2018-05-29T10:51:46.268Z,8.07
2018-05-29T10:54:13.968Z,9.10
2018-05-29T10:56:41.610Z,9.68
2018-05-29T10:59:09.300Z,8.03
2018-05-29T11:01:36.912Z,8.17
2018-05-29T11:04:04.534Z,7.57
2018-05-29T11:06:32.160Z,8.60
2018-05-29T11:08:59.806Z,8.90
2018-05-29T11:11:27.442Z,9.30
2018-05-29T11:13:55.076Z,12.23
2018-05-29T11:16:22.708Z,8.80
2018-05-29T11:18:50.337Z,8.57
2018-05-29T11:21:17.973Z,7.83
2018-05-29T11:23:45.593Z,8.70
2018-05-29T11:26:13.236Z,8.83
2018-05-29T11:28:40.865Z,9.02
2018-05-29T11:31:09.351Z,8.70
2018-05-29T11:33:36.995Z,7.93
2018-05-29T11:36:04.646Z,7.53
2018-05-29T11:38:32.276Z,8.02
2018-05-29T11:40:59.892Z,8.80
2018-05-29T11:43:27.570Z,8.33
2018-05-29T11:45:55.182Z,17.13
2018-05-29T11:48:22.818Z,7.87
2018-05-29T11:50:50.446Z,8.00
2018-05-29T11:53:18.061Z,7.33
2018-05-29T11:55:45.708Z,7.63
2018-05-29T11:58:13.350Z,9.90
2018-05-29T12:00:41.044Z,7.30
2018-05-29T12:03:08.654Z,11.03
2018-05-29T12:05:36.286Z,7.90
2018-05-29T12:08:03.916Z,7.97
2018-05-29T12:10:31.539Z,7.40
2018-05-29T12:12:59.165Z,7.47
2018-05-29T12:15:26.788Z,7.60
2018-05-29T12:17:54.448Z,16.30
2018-05-29T12:20:22.113Z,7.90
2018-05-29T12:22:49.757Z,7.33
2018-05-29T12:25:17.388Z,7.80
2018-05-29T12:27:45.007Z,9.23
2018-05-29T12:30:12.636Z,6.70
2018-05-29T12:32:40.261Z,6.70
2018-05-29T12:35:07.911Z,6.50
2018-05-29T12:37:35.571Z,7.00
2018-05-29T12:40:03.260Z,7.20
2018-05-29T12:42:30.884Z,6.50
2018-05-29T12:44:58.556Z,6.53
2018-05-29T12:47:26.174Z,8.47
2018-05-29T12:49:53.793Z,7.30
2018-05-29T12:52:21.433Z,6.63
2018-05-29T12:54:49.091Z,6.87
2018-05-29T12:57:16.731Z,5.90
2018-05-29T12:59:44.346Z,5.60
2018-05-29T13:02:11.974Z,6.30
2018-05-29T13:04:39.610Z,5.70
2018-05-29T13:07:07.267Z,7.97
2018-05-29T13:09:34.902Z,11.25
2018-05-29T13:12:02.543Z,5.73
2018-05-29T13:14:30.180Z,5.23
2018-05-29T13:16:57.798Z,6.20
2018-05-29T13:19:25.444Z,6.37
2018-05-29T13:21:53.066Z,6.20
2018-05-29T13:24:20.703Z,6.17
2018-05-29T13:26:48.414Z,5.70
2018-05-29T13:29:16.055Z,6.80
2018-05-29T13:31:43.697Z,5.70
2018-05-29T13:34:11.338Z,8.33
2018-05-29T13:36:38.950Z,5.35
2018-05-29T13:39:06.625Z,6.23
2018-05-29T13:41:34.260Z,5.60
2018-05-29T13:44:01.904Z,5.03
2018-05-29T13:46:33.544Z,6.80
2018-05-29T13:49:01.191Z,5.40
2018-05-29T13:51:28.835Z,5.53
2018-05-29T13:53:56.506Z,6.47
2018-05-29T13:56:24.207Z,5.20
2018-05-29T13:58:51.837Z,5.80
2018-05-29T14:01:19.485Z,5.80
2018-05-29T14:03:47.147Z,5.10
2018-05-29T14:06:14.772Z,5.17
2018-05-29T14:08:42.404Z,5.77
2018-05-29T14:11:10.036Z,5.00
2018-05-29T14:13:37.675Z,4.90
2018-05-29T14:16:05.315Z,5.10
2018-05-29T14:18:32.965Z,4.43
2018-05-29T14:21:00.585Z,4.53
2018-05-29T14:23:28.218Z,5.40
2018-05-29T14:25:55.861Z,4.43
2018-05-29T14:28:23.501Z,6.28
2018-05-29T14:30:51.146Z,4.40
2018-05-29T14:33:18.781Z,4.20
2018-05-29T14:35:46.410Z,8.23
2018-05-29T14:38:14.048Z,5.23
2018-05-29T14:40:41.693Z,4.43
2018-05-29T14:43:20.926Z,5.73
2018-05-29T14:45:48.816Z,4.13
2018-05-29T14:48:16.442Z,4.87
2018-05-29T14:50:44.094Z,4.37
2018-05-29T14:53:11.743Z,3.97
2018-05-29T14:55:39.420Z,4.27
2018-05-29T14:58:07.079Z,4.80
2018-05-29T15:00:34.801Z,4.50
2018-05-29T15:03:02.433Z,6.37
2018-05-29T15:05:30.061Z,4.90
2018-05-29T15:07:57.691Z,4.40
2018-05-29T15:10:25.354Z,3.97
2018-05-29T15:12:53.031Z,7.33
2018-05-29T15:15:20.667Z,4.43
2018-05-29T15:17:48.294Z,3.30
2018-05-29T15:20:15.931Z,4.62
2018-05-29T15:22:43.558Z,3.70
2018-05-29T15:25:11.286Z,4.97
2018-05-29T15:27:38.931Z,5.13
2018-05-29T15:30:06.578Z,4.00
2018-05-29T15:32:34.216Z,3.70
2018-05-29T15:35:01.841Z,4.63
2018-05-29T15:37:29.475Z,4.50
2018-05-29T15:39:57.124Z,3.60
2018-05-29T15:42:24.757Z,4.23
2018-05-29T15:44:57.586Z,8.60
2018-05-29T15:47:25.218Z,7.27
2018-05-29T15:49:52.838Z,5.07
2018-05-29T15:52:20.468Z,4.13
2018-05-29T15:54:48.130Z,4.43
2018-05-29T15:57:15.786Z,4.70
2018-05-29T15:59:43.437Z,5.95
2018-05-29T16:02:11.058Z,4.57
2018-05-29T16:04:38.679Z,5.33
2018-05-29T16:07:06.304Z,4.47
2018-05-29T16:09:33.985Z,5.03
2018-05-29T16:12:01.610Z,4.33
2018-05-29T16:14:29.264Z,4.20
2018-05-29T16:16:59.871Z,4.97
2018-05-29T16:19:27.813Z,4.53
2018-05-29T16:21:55.477Z,4.57
2018-05-29T16:24:23.145Z,4.90
2018-05-29T16:26:50.789Z,4.50
2018-05-29T16:29:18.435Z,5.10
2018-05-29T16:31:46.084Z,6.50
2018-05-29T16:34:13.732Z,6.20
2018-05-29T16:36:41.381Z,4.87
2018-05-29T16:39:09.010Z,4.80
2018-05-29T16:41:36.632Z,5.13
2018-05-29T16:44:11.594Z,4.30
2018-05-29T16:46:40.218Z,4.97
2018-05-29T16:49:07.872Z,4.90
2018-05-29T16:51:35.498Z,4.17
2018-05-29T16:54:03.155Z,4.90
2018-05-29T16:56:30.798Z,4.33
2018-05-29T16:58:58.427Z,4.77
2018-05-29T17:01:26.087Z,4.17
2018-05-29T17:03:57.017Z,4.90
2018-05-29T17:06:24.647Z,7.87
2018-05-29T17:08:54.563Z,4.40
2018-05-29T17:11:22.350Z,5.00
2018-05-29T17:13:49.982Z,4.30
2018-05-29T17:16:17.620Z,4.63
2018-05-29T17:18:45.269Z,5.33
2018-05-29T17:21:14.670Z,4.87
2018-05-29T17:23:43.495Z,6.73
2018-05-29T17:26:12.209Z,4.80
2018-05-29T17:28:39.861Z,5.80
2018-05-29T17:31:07.532Z,4.25
2018-05-29T17:33:36.082Z,4.70
2018-05-29T17:36:03.725Z,4.50
2018-05-29T17:38:31.366Z,7.40
2018-05-29T17:40:58.994Z,4.55
2018-05-29T17:43:26.620Z,5.13
2018-05-29T17:45:54.259Z,6.07
2018-05-29T17:48:21.903Z,4.80
2018-05-29T17:50:49.521Z,4.13
2018-05-29T17:53:17.160Z,4.90
2018-05-29T17:55:44.831Z,4.83
2018-05-29T17:58:13.166Z,5.50
2018-05-29T18:00:40.852Z,4.90
2018-05-29T18:03:08.493Z,4.70
2018-05-29T18:05:36.137Z,7.87
2018-05-29T18:08:07.530Z,4.20
2018-05-29T18:10:35.189Z,4.40
2018-05-29T18:13:02.852Z,6.47
2018-05-29T18:15:30.508Z,4.20
2018-05-29T18:17:58.139Z,4.43
2018-05-29T18:20:25.779Z,4.90
2018-05-29T18:22:53.409Z,5.80
2018-05-29T18:25:21.046Z,4.33
2018-05-29T18:27:48.679Z,6.10
2018-05-29T18:30:16.308Z,5.00
2018-05-29T18:32:43.936Z,4.27
2018-05-29T18:35:11.587Z,6.33
2018-05-29T18:37:39.254Z,4.10
2018-05-29T18:40:13.264Z,5.50
2018-05-29T18:42:48.705Z,4.83
2018-05-29T18:45:23.638Z,4.30
2018-05-29T18:47:59.198Z,6.33
2018-05-29T18:50:33.128Z,4.47
2018-05-29T18:53:06.216Z,4.90
2018-05-29T18:55:39.801Z,6.60
2018-05-29T18:58:13.387Z,7.70
2018-05-29T19:00:41.766Z,4.70
2018-05-29T19:03:09.427Z,9.60
2018-05-29T19:05:37.084Z,7.60
2018-05-29T19:08:05.605Z,6.97
2018-05-29T19:10:33.241Z,6.73
2018-05-29T19:13:00.888Z,5.68
2018-05-29T19:15:28.520Z,6.70
2018-05-29T19:17:56.161Z,6.87
2018-05-29T19:20:23.811Z,8.43
2018-05-29T19:22:51.515Z,6.07
2018-05-29T19:25:19.143Z,6.57
2018-05-29T19:27:48.774Z,6.10
2018-05-29T19:30:20.284Z,6.82
2018-05-29T19:32:48.333Z,7.47
2018-05-29T19:35:16.061Z,5.93
2018-05-29T19:37:44.185Z,6.90
2018-05-29T19:40:11.864Z,6.70
2018-05-29T19:42:39.524Z,6.95
2018-05-29T19:45:07.196Z,8.37
2018-05-29T19:47:34.833Z,6.43
2018-05-29T19:50:02.475Z,7.23
2018-05-29T19:52:30.118Z,5.67
2018-05-29T19:54:57.758Z,7.03
2018-05-29T19:57:25.412Z,9.40
2018-05-29T19:59:58.783Z,6.73
2018-05-29T20:02:26.743Z,6.50
2018-05-29T20:04:54.594Z,7.20
2018-05-29T20:07:26.535Z,6.20
2018-05-29T20:09:54.582Z,7.10
2018-05-29T20:12:22.317Z,7.20
2018-05-29T20:14:50.030Z,7.90
2018-05-29T20:17:17.742Z,8.13
2018-05-29T20:19:45.509Z,7.43
2018-05-29T20:22:13.210Z,7.30
2018-05-29T20:24:41.054Z,6.90
2018-05-29T20:27:08.698Z,8.20
2018-05-29T20:29:36.446Z,7.50
2018-05-29T20:32:04.178Z,7.47
2018-05-29T20:34:31.829Z,6.63
2018-05-29T20:36:59.531Z,6.60
2018-05-29T20:39:27.348Z,7.90
2018-05-29T20:41:55.071Z,7.43
2018-05-29T20:44:22.778Z,6.83
2018-05-29T20:46:50.473Z,5.27
2018-05-29T20:49:18.148Z,5.97
2018-05-29T20:51:45.839Z,5.93
2018-05-29T20:54:13.612Z,6.63
2018-05-29T20:56:41.275Z,5.30
2018-05-29T20:59:09.053Z,5.90
2018-05-29T21:01:36.720Z,6.20
2018-05-29T21:04:04.351Z,6.37
2018-05-29T21:06:32.042Z,6.47
2018-05-29T21:08:59.882Z,6.50
2018-05-29T21:11:27.642Z,5.80
2018-05-29T21:13:55.343Z,6.57
2018-05-29T21:16:23.079Z,7.77
2018-05-29T21:18:50.874Z,6.07
2018-05-29T21:21:18.571Z,6.77
2018-05-29T21:23:46.232Z,7.03
2018-05-29T21:26:14.006Z,6.43
2018-05-29T21:28:41.794Z,6.25
2018-05-29T21:31:09.688Z,6.30
2018-05-29T21:33:37.418Z,5.10
2018-05-29T21:36:05.268Z,5.60
2018-05-29T21:38:32.936Z,5.60
2018-05-29T21:41:00.678Z,5.90
2018-05-29T21:43:28.344Z,6.53
2018-05-29T21:45:56.038Z,7.73
2018-05-29T21:48:23.855Z,7.57
2018-05-29T21:50:51.630Z,6.10
2018-05-29T21:53:19.401Z,5.73
2018-05-29T21:55:47.172Z,6.00
2018-05-29T21:58:14.956Z,6.37
2018-05-29T22:00:42.706Z,5.97
2018-05-29T22:03:10.364Z,6.07
2018-05-29T22:05:38.076Z,5.50
2018-05-29T22:08:06.603Z,5.82
2018-05-29T22:10:34.353Z,6.43
2018-05-29T22:13:02.069Z,6.40
2018-05-29T22:15:29.831Z,6.53
2018-05-29T22:17:57.657Z,6.37
2018-05-29T22:20:25.422Z,5.47
2018-05-29T22:22:53.200Z,6.00
2018-05-29T22:25:20.973Z,6.70
2018-05-29T22:27:48.789Z,6.17
2018-05-29T22:30:16.521Z,6.60
2018-05-29T22:32:44.156Z,8.73
2018-05-29T22:35:11.808Z,6.90
2018-05-29T22:37:39.476Z,6.20
2018-05-29T22:40:07.123Z,7.73
2018-05-29T22:42:35.081Z,5.82
2018-05-29T22:45:02.734Z,5.40
2018-05-29T22:47:30.378Z,6.30
2018-05-29T22:49:58.037Z,5.90
2018-05-29T22:52:25.697Z,5.33
2018-05-29T22:54:53.375Z,7.80
2018-05-29T22:57:21.050Z,7.13
2018-05-29T22:59:48.723Z,5.78
2018-05-29T23:02:16.385Z,6.60
2018-05-29T23:04:44.035Z,6.13
2018-05-29T23:07:11.691Z,6.77
2018-05-29T23:09:39.347Z,5.50
2018-05-29T23:12:07.006Z,6.87
2018-05-29T23:14:34.642Z,6.27
2018-05-29T23:17:02.534Z,6.40
2018-05-29T23:19:30.158Z,5.60
2018-05-29T23:21:57.801Z,8.07
2018-05-29T23:24:25.447Z,5.90
2018-05-29T23:26:53.089Z,7.90
2018-05-29T23:29:20.797Z,6.30
2018-05-29T23:31:48.549Z,5.40
2018-05-29T23:34:16.211Z,7.03
2018-05-29T23:36:43.851Z,6.30
2018-05-29T23:39:11.868Z,6.23
2018-05-29T23:41:39.494Z,6.47
2018-05-29T23:44:07.118Z,5.55
2018-05-29T23:46:34.774Z,6.25
2018-05-29T23:49:02.421Z,5.73
2018-05-29T23:51:30.069Z,6.15
2018-05-29T23:53:57.710Z,6.47
2018-05-29T23:56:25.326Z,6.72
2018-05-29T23:58:52.959Z,7.03
